createdAt,value
2018-05-10T00:01:55.121Z,18.31
2018-05-10T00:04:28.524Z,18.23
2018-05-10T00:07:01.857Z,18.22
2018-05-10T00:09:34.423Z,18.18
2018-05-10T00:12:06.969Z,18.13
2018-05-10T00:14:39.514Z,18.08
2018-05-10T00:17:12.048Z,18.03
2018-05-10T00:19:44.614Z,17.97
2018-05-10T00:22:17.146Z,17.93
2018-05-10T00:24:49.685Z,17.88
2018-05-10T00:27:22.208Z,17.83
2018-05-10T00:29:54.786Z,17.76
2018-05-10T00:32:27.324Z,17.72
2018-05-10T00:34:59.879Z,17.63
2018-05-10T00:37:32.422Z,17.44
2018-05-10T00:40:05.066Z,17.46
2018-05-10T00:42:37.659Z,17.41
2018-05-10T00:45:10.241Z,17.45
2018-05-10T00:47:42.811Z,17.46
2018-05-10T00:50:15.399Z,17.40
2018-05-10T00:52:47.977Z,17.38
2018-05-10T00:57:59.461Z,17.34
2018-05-10T01:00:32.058Z,17.32
2018-05-10T01:03:04.626Z,17.33
2018-05-10T01:05:37.327Z,17.30
2018-05-10T01:08:09.873Z,17.21
2018-05-10T01:10:42.442Z,17.18
2018-05-10T01:13:15.005Z,17.13
2018-05-10T01:15:47.700Z,16.77
2018-05-10T01:18:20.251Z,16.83
2018-05-10T01:20:52.906Z,16.88
2018-05-10T01:23:25.516Z,16.90
2018-05-10T01:25:58.056Z,16.93
2018-05-10T01:28:30.613Z,16.93
2018-05-10T01:31:03.153Z,16.95
2018-05-10T01:33:35.795Z,17.03
2018-05-10T01:36:14.883Z,17.00
2018-05-10T01:38:47.449Z,17.00
2018-05-10T01:41:20.004Z,17.01
2018-05-10T01:43:52.654Z,17.03
2018-05-10T01:46:25.672Z,17.00
2018-05-10T01:48:58.605Z,17.00
2018-05-10T01:51:31.615Z,16.96
2018-05-10T01:54:04.291Z,16.99
2018-05-10T01:56:36.855Z,16.98
2018-05-10T01:59:09.447Z,16.93
2018-05-10T02:01:42.023Z,16.87
2018-05-10T02:04:14.607Z,16.86
2018-05-10T02:06:47.146Z,16.84
2018-05-10T02:09:19.767Z,16.91
2018-05-10T02:11:52.363Z,16.94
2018-05-10T02:14:37.372Z,16.96
2018-05-10T02:17:09.824Z,16.95
2018-05-10T02:19:42.347Z,16.92
2018-05-10T02:22:14.851Z,16.89
2018-05-10T02:24:47.360Z,16.86
2018-05-10T02:27:19.849Z,16.80
2018-05-10T02:29:52.385Z,16.76
2018-05-10T02:32:24.901Z,16.75
2018-05-10T02:34:57.419Z,16.75
2018-05-10T02:37:29.925Z,16.72
2018-05-10T02:40:02.443Z,16.74
2018-05-10T02:42:35.824Z,16.77
2018-05-10T02:45:08.483Z,16.77
2018-05-10T02:47:40.858Z,16.78
2018-05-10T02:50:13.383Z,16.78
2018-05-10T02:52:45.892Z,16.74
2018-05-10T02:55:18.408Z,16.70
2018-05-10T02:57:50.901Z,16.66
2018-05-10T03:00:23.413Z,16.67
2018-05-10T03:02:55.921Z,16.63
2018-05-10T03:05:28.442Z,16.62
2018-05-10T03:08:01.012Z,16.59
2018-05-10T03:10:34.079Z,16.55
2018-05-10T03:13:06.592Z,16.56
2018-05-10T03:15:39.108Z,16.50
2018-05-10T03:18:11.600Z,16.48
2018-05-10T03:20:44.140Z,16.45
2018-05-10T03:23:16.637Z,16.44
2018-05-10T03:25:49.152Z,16.42
2018-05-10T03:28:21.646Z,16.45
2018-05-10T03:30:54.169Z,16.46
2018-05-10T03:33:26.688Z,16.46
2018-05-10T03:35:59.197Z,16.43
2018-05-10T03:38:31.688Z,16.39
2018-05-10T03:41:04.287Z,16.40
2018-05-10T03:43:36.723Z,16.40
2018-05-10T03:46:09.243Z,16.39
2018-05-10T03:48:41.741Z,16.37
2018-05-10T03:51:14.254Z,16.31
2018-05-10T03:53:46.752Z,16.30
2018-05-10T03:56:19.272Z,16.28
2018-05-10T03:58:51.765Z,16.20
2018-05-10T04:01:24.278Z,16.27
2018-05-10T04:04:04.823Z,16.26
2018-05-10T04:06:49.341Z,16.27
2018-05-10T04:12:32.053Z,16.26
2018-05-10T04:15:05.368Z,16.24
2018-05-10T04:17:37.868Z,16.24
2018-05-10T04:20:10.387Z,16.24
2018-05-10T04:22:42.899Z,16.24
2018-05-10T04:25:15.423Z,16.18
2018-05-10T04:27:47.963Z,16.11
2018-05-10T04:30:20.452Z,16.16
2018-05-10T04:32:52.949Z,16.23
2018-05-10T04:35:25.524Z,16.28
2018-05-10T04:37:58.029Z,16.32
2018-05-10T04:40:30.563Z,16.32
2018-05-10T04:43:03.147Z,16.37
2018-05-10T04:45:35.701Z,16.34
2018-05-10T04:48:08.186Z,16.33
2018-05-10T04:50:40.701Z,16.37
2018-05-10T04:53:13.204Z,16.36
2018-05-10T04:58:24.498Z,16.42
2018-05-10T05:00:57.050Z,16.47
2018-05-10T05:03:29.628Z,16.52
2018-05-10T05:06:02.092Z,16.51
2018-05-10T05:08:35.326Z,16.50
2018-05-10T05:11:07.819Z,16.43
2018-05-10T05:13:40.307Z,16.49
2018-05-10T05:16:12.849Z,16.54
2018-05-10T05:18:45.362Z,16.63
2018-05-10T05:21:17.876Z,16.69
2018-05-10T05:23:50.380Z,16.80
2018-05-10T05:26:22.919Z,16.86
2018-05-10T05:28:55.457Z,17.02
2018-05-10T05:31:27.976Z,17.17
2018-05-10T05:34:00.475Z,17.37
2018-05-10T05:36:33.244Z,17.56
2018-05-10T05:39:05.756Z,17.70
2018-05-10T05:41:38.276Z,17.84
2018-05-10T05:44:10.787Z,17.98
2018-05-10T05:46:43.319Z,18.04
2018-05-10T05:49:15.820Z,18.15
2018-05-10T05:51:48.332Z,18.24
2018-05-10T05:54:20.836Z,18.40
2018-05-10T05:56:53.357Z,18.49
2018-05-10T05:59:25.857Z,18.56
2018-05-10T06:01:58.370Z,18.61
2018-05-10T06:04:30.868Z,18.65
2018-05-10T06:07:04.250Z,18.88
2018-05-10T06:09:36.758Z,19.06
2018-05-10T06:12:09.278Z,19.06
2018-05-10T06:14:41.792Z,19.19
2018-05-10T06:17:14.308Z,19.33
2018-05-10T06:19:46.815Z,19.31
2018-05-10T06:22:19.343Z,19.38
2018-05-10T06:24:51.896Z,19.44
2018-05-10T06:27:24.387Z,19.54
2018-05-10T06:29:56.883Z,19.54
2018-05-10T06:32:29.403Z,19.67
2018-05-10T06:35:01.939Z,19.74
2018-05-10T06:37:35.128Z,19.81
2018-05-10T06:40:07.629Z,19.84
2018-05-10T06:42:40.149Z,19.93
2018-05-10T06:45:12.651Z,19.94
2018-05-10T06:47:45.159Z,20.12
2018-05-10T06:50:17.651Z,20.29
2018-05-10T06:52:50.171Z,20.48
2018-05-10T06:55:22.705Z,20.78
2018-05-10T06:57:55.215Z,20.98
2018-05-10T07:00:27.711Z,21.17
2018-05-10T07:03:00.231Z,21.50
2018-05-10T07:05:33.003Z,21.54
2018-05-10T07:08:05.514Z,21.74
2018-05-10T07:10:38.005Z,22.13
2018-05-10T07:13:10.525Z,22.62
2018-05-10T07:15:43.020Z,23.02
2018-05-10T07:18:15.545Z,23.34
2018-05-10T07:20:48.031Z,23.58
2018-05-10T07:23:20.550Z,23.74
2018-05-10T07:25:53.075Z,23.77
2018-05-10T07:28:25.570Z,23.90
2018-05-10T07:30:58.096Z,23.72
2018-05-10T07:33:30.593Z,24.14
2018-05-10T07:36:03.210Z,24.51
2018-05-10T07:38:35.707Z,24.55
2018-05-10T07:41:08.224Z,24.83
2018-05-10T07:43:40.718Z,24.79
2018-05-10T07:46:13.242Z,24.97
2018-05-10T07:48:45.739Z,25.17
2018-05-10T07:51:18.246Z,25.46
2018-05-10T07:53:50.751Z,25.75
2018-05-10T07:56:23.263Z,25.58
2018-05-10T07:58:55.759Z,25.64
2018-05-10T08:01:28.274Z,25.69
2018-05-10T08:04:00.769Z,26.03
2018-05-10T08:06:33.947Z,26.00
2018-05-10T08:09:06.527Z,26.00
2018-05-10T08:11:39.036Z,25.73
2018-05-10T08:14:11.531Z,25.84
2018-05-10T08:16:44.045Z,25.67
2018-05-10T08:19:16.546Z,25.59
2018-05-10T08:21:49.059Z,25.74
2018-05-10T08:24:21.625Z,25.74
2018-05-10T08:26:54.095Z,25.89
2018-05-10T08:29:31.602Z,25.99
2018-05-10T08:32:04.114Z,26.22
2018-05-10T08:34:36.611Z,26.52
2018-05-10T08:37:09.123Z,26.56
2018-05-10T08:39:41.627Z,26.32
2018-05-10T08:42:14.144Z,26.78
2018-05-10T08:44:46.653Z,26.71
2018-05-10T08:47:19.166Z,26.98
2018-05-10T08:49:51.664Z,27.20
2018-05-10T08:52:24.182Z,26.93
2018-05-10T08:54:56.684Z,26.83
2018-05-10T08:57:29.203Z,26.62
2018-05-10T09:00:01.727Z,27.04
2018-05-10T09:02:34.240Z,27.20
2018-05-10T09:05:06.745Z,27.01
2018-05-10T09:07:39.256Z,27.20
2018-05-10T09:10:11.754Z,27.60
2018-05-10T09:12:44.268Z,27.92
2018-05-10T09:15:16.773Z,28.43
2018-05-10T09:17:49.287Z,28.32
2018-05-10T09:20:21.825Z,28.06
2018-05-10T09:22:54.315Z,28.23
2018-05-10T09:25:26.890Z,27.98
2018-05-10T09:27:59.350Z,28.07
2018-05-10T09:30:31.848Z,28.24
2018-05-10T09:33:05.497Z,28.17
2018-05-10T09:35:38.000Z,28.53
2018-05-10T09:38:10.528Z,28.63
2018-05-10T09:40:43.020Z,28.84
2018-05-10T09:43:15.536Z,28.87
2018-05-10T09:45:48.051Z,29.19
2018-05-10T09:48:20.562Z,29.20
2018-05-10T09:50:53.052Z,29.20
2018-05-10T09:53:25.592Z,29.20
2018-05-10T09:55:58.262Z,29.68
2018-05-10T09:58:30.780Z,29.82
2018-05-10T10:01:03.948Z,30.04
2018-05-10T10:03:36.472Z,30.16
2018-05-10T10:06:08.984Z,30.04
2018-05-10T10:08:41.923Z,30.14
2018-05-10T10:11:14.472Z,30.09
2018-05-10T10:13:46.992Z,30.16
2018-05-10T10:16:19.511Z,29.94
2018-05-10T10:18:52.028Z,29.84
2018-05-10T10:21:24.526Z,30.10
2018-05-10T10:23:57.043Z,30.42
2018-05-10T10:26:29.550Z,30.23
2018-05-10T10:29:02.073Z,30.34
2018-05-10T10:31:35.334Z,30.67
2018-05-10T10:34:07.865Z,30.77
2018-05-10T10:36:40.360Z,30.98
2018-05-10T10:39:12.872Z,31.02
2018-05-10T10:41:45.374Z,30.83
2018-05-10T10:44:17.891Z,30.87
2018-05-10T10:46:50.392Z,31.13
2018-05-10T10:49:22.894Z,30.86
2018-05-10T10:51:55.403Z,30.24
2018-05-10T10:54:27.915Z,30.03
2018-05-10T10:57:00.469Z,30.14
2018-05-10T10:59:33.111Z,30.31
2018-05-10T11:02:05.967Z,30.53
2018-05-10T11:04:38.463Z,30.28
2018-05-10T11:07:10.986Z,30.10
2018-05-10T11:09:43.483Z,30.14
2018-05-10T11:12:15.999Z,30.28
2018-05-10T11:14:48.503Z,30.36
2018-05-10T11:17:21.015Z,30.47
2018-05-10T11:19:53.512Z,30.58
2018-05-10T11:22:26.025Z,30.98
2018-05-10T11:24:58.528Z,30.97
2018-05-10T11:27:31.044Z,31.11
2018-05-10T11:30:03.865Z,31.04
2018-05-10T11:32:36.859Z,31.12
2018-05-10T11:35:09.382Z,31.05
2018-05-10T11:37:41.902Z,31.08
2018-05-10T11:40:14.399Z,30.85
2018-05-10T11:42:46.924Z,31.02
2018-05-10T11:45:19.415Z,31.63
2018-05-10T11:47:51.936Z,31.96
2018-05-10T11:50:24.455Z,31.58
2018-05-10T11:52:56.976Z,32.13
2018-05-10T11:55:29.463Z,33.33
2018-05-10T11:58:01.988Z,34.63
2018-05-10T12:00:35.113Z,35.24
2018-05-10T12:03:07.632Z,35.27
2018-05-10T12:05:40.126Z,34.83
2018-05-10T12:08:12.636Z,33.67
2018-05-10T12:10:45.139Z,33.13
2018-05-10T12:13:17.653Z,32.74
2018-05-10T12:15:50.152Z,33.02
2018-05-10T12:18:22.687Z,33.24
2018-05-10T12:20:55.188Z,33.19
2018-05-10T12:23:27.703Z,33.17
2018-05-10T12:26:00.205Z,33.02
2018-05-10T12:28:33.287Z,32.50
2018-05-10T12:31:05.846Z,32.03
2018-05-10T12:33:38.310Z,31.60
2018-05-10T12:36:10.816Z,31.10
2018-05-10T12:38:43.343Z,30.37
2018-05-10T12:41:16.065Z,30.02
2018-05-10T12:43:48.588Z,29.73
2018-05-10T12:46:21.087Z,29.58
2018-05-10T12:48:53.608Z,29.45
2018-05-10T12:51:26.104Z,29.30
2018-05-10T12:53:58.627Z,29.02
2018-05-10T12:56:31.305Z,28.91
2018-05-10T12:59:04.115Z,28.60
2018-05-10T13:01:36.627Z,28.21
2018-05-10T13:04:09.185Z,28.25
2018-05-10T13:06:41.705Z,28.22
2018-05-10T13:09:14.249Z,28.21
2018-05-10T13:11:46.752Z,28.03
2018-05-10T13:14:19.287Z,27.71
2018-05-10T13:16:51.811Z,27.69
2018-05-10T13:19:24.416Z,27.72
2018-05-10T13:21:56.877Z,27.74
2018-05-10T13:24:29.415Z,27.73
2018-05-10T13:27:01.927Z,27.67
2018-05-10T13:29:35.228Z,27.79
2018-05-10T13:32:07.734Z,27.67
2018-05-10T13:34:40.258Z,27.56
2018-05-10T13:37:12.751Z,27.40
2018-05-10T13:39:45.270Z,27.49
2018-05-10T13:42:17.777Z,27.54
2018-05-10T13:44:50.296Z,27.69
2018-05-10T13:47:22.859Z,27.89
2018-05-10T13:49:55.376Z,27.92
2018-05-10T13:52:27.886Z,27.94
2018-05-10T13:55:00.418Z,27.66
2018-05-10T13:57:33.556Z,27.66
2018-05-10T14:00:06.089Z,27.55
2018-05-10T14:02:38.605Z,27.51
2018-05-10T14:05:11.143Z,27.30
2018-05-10T14:07:43.644Z,27.24
2018-05-10T14:10:16.159Z,27.26
2018-05-10T14:12:48.665Z,27.33
2018-05-10T14:15:21.187Z,27.28
2018-05-10T14:17:53.688Z,27.24
2018-05-10T14:20:26.220Z,27.03
2018-05-10T14:22:58.716Z,26.93
2018-05-10T14:25:31.246Z,26.91
2018-05-10T14:28:04.121Z,26.95
2018-05-10T14:30:36.649Z,27.19
2018-05-10T14:33:09.188Z,27.16
2018-05-10T14:35:41.734Z,26.86
2018-05-10T14:38:14.286Z,26.71
2018-05-10T14:40:46.807Z,26.49
2018-05-10T14:43:19.377Z,26.21
2018-05-10T14:45:51.884Z,26.18
2018-05-10T14:48:24.417Z,26.06
2018-05-10T14:50:56.937Z,25.78
2018-05-10T14:53:35.597Z,25.62
2018-05-10T14:56:09.192Z,25.27
2018-05-10T14:58:41.721Z,24.94
2018-05-10T15:01:14.227Z,24.64
2018-05-10T15:03:46.762Z,24.58
2018-05-10T15:06:20.556Z,24.34
2018-05-10T15:08:53.130Z,24.06
2018-05-10T15:11:25.635Z,23.80
2018-05-10T15:13:58.166Z,23.40
2018-05-10T15:16:30.684Z,23.17
2018-05-10T15:19:03.444Z,22.91
2018-05-10T15:21:35.947Z,22.75
2018-05-10T15:24:08.492Z,22.49
2018-05-10T15:26:40.995Z,22.26
2018-05-10T15:29:13.528Z,22.06
2018-05-10T15:31:46.042Z,22.01
2018-05-10T15:34:18.581Z,21.95
2018-05-10T15:36:51.087Z,21.93
2018-05-10T15:39:23.679Z,21.87
2018-05-10T15:41:56.186Z,21.74
2018-05-10T15:44:28.717Z,21.74
2018-05-10T15:47:01.227Z,21.67
2018-05-10T15:49:34.913Z,21.63
2018-05-10T15:52:07.417Z,21.53
2018-05-10T15:54:39.953Z,21.45
2018-05-10T15:57:12.461Z,21.31
2018-05-10T15:59:45.003Z,21.04
2018-05-10T16:02:17.546Z,20.91
2018-05-10T16:04:50.135Z,20.73
2018-05-10T16:07:22.631Z,20.75
2018-05-10T16:09:55.166Z,20.62
2018-05-10T16:12:27.667Z,20.60
2018-05-10T16:15:00.192Z,20.51
2018-05-10T16:17:32.685Z,20.53
2018-05-10T16:20:05.669Z,20.53
2018-05-10T16:22:38.201Z,20.47
2018-05-10T16:25:10.888Z,20.60
2018-05-10T16:27:44.600Z,20.56
2018-05-10T16:30:17.177Z,20.61
2018-05-10T16:32:49.757Z,20.58
2018-05-10T16:35:22.283Z,20.51
2018-05-10T16:37:54.793Z,20.45
2018-05-10T16:40:27.318Z,20.33
2018-05-10T16:42:59.825Z,20.14
2018-05-10T16:45:32.363Z,20.17
2018-05-10T16:48:05.623Z,20.21
2018-05-10T16:50:38.156Z,20.14
2018-05-10T16:53:10.656Z,20.17
2018-05-10T16:55:43.179Z,20.22
2018-05-10T16:58:15.680Z,20.29
2018-05-10T17:00:48.208Z,20.32
2018-05-10T17:03:20.744Z,20.15
2018-05-10T17:05:53.275Z,20.03
2018-05-10T17:08:25.811Z,20.15
2018-05-10T17:10:58.339Z,19.95
2018-05-10T17:13:30.843Z,19.88
2018-05-10T17:16:03.885Z,19.89
2018-05-10T17:18:36.473Z,19.86
2018-05-10T17:21:08.944Z,19.73
2018-05-10T17:23:41.472Z,19.66
2018-05-10T17:26:13.991Z,19.62
2018-05-10T17:28:46.485Z,19.58
2018-05-10T17:31:19.194Z,19.59
2018-05-10T17:33:51.724Z,19.55
2018-05-10T17:36:24.316Z,19.61
2018-05-10T17:38:56.871Z,19.55
2018-05-10T17:41:29.369Z,19.50
2018-05-10T17:44:01.870Z,19.39
2018-05-10T17:46:35.203Z,19.41
2018-05-10T17:49:07.694Z,19.36
2018-05-10T17:51:40.213Z,19.37
2018-05-10T17:54:12.730Z,19.39
2018-05-10T17:56:45.245Z,19.37
2018-05-10T17:59:17.826Z,19.35
2018-05-10T18:01:50.340Z,19.31
2018-05-10T18:04:22.869Z,19.32
2018-05-10T18:06:55.502Z,19.32
2018-05-10T18:09:28.048Z,19.18
2018-05-10T18:12:00.549Z,19.11
2018-05-10T18:14:33.067Z,19.03
2018-05-10T18:17:05.584Z,18.94
2018-05-10T18:19:38.115Z,18.89
2018-05-10T18:22:10.637Z,18.83
2018-05-10T18:24:43.163Z,18.80
2018-05-10T18:27:15.668Z,18.87
2018-05-10T18:29:48.188Z,18.82
2018-05-10T18:32:20.680Z,18.73
2018-05-10T18:34:53.195Z,18.59
2018-05-10T18:37:25.695Z,18.71
2018-05-10T18:39:58.225Z,18.66
2018-05-10T18:42:30.822Z,18.54
2018-05-10T18:45:04.128Z,18.52
2018-05-10T18:47:36.628Z,18.48
2018-05-10T18:50:09.156Z,18.42
2018-05-10T18:52:41.664Z,18.40
2018-05-10T18:55:14.191Z,18.28
2018-05-10T18:57:46.700Z,18.25
2018-05-10T19:00:19.214Z,18.20
2018-05-10T19:02:51.718Z,18.15
2018-05-10T19:05:24.228Z,18.12
2018-05-10T19:07:56.735Z,18.06
2018-05-10T19:10:29.282Z,18.02
2018-05-10T19:13:01.776Z,17.88
2018-05-10T19:15:35.420Z,17.95
2018-05-10T19:18:07.936Z,17.80
2018-05-10T19:20:40.460Z,17.62
2018-05-10T19:23:12.975Z,17.45
2018-05-10T19:25:45.493Z,17.30
2018-05-10T19:28:17.996Z,17.26
2018-05-10T19:30:50.515Z,17.13
2018-05-10T19:33:23.012Z,16.92
2018-05-10T19:35:55.559Z,16.89
2018-05-10T19:38:28.060Z,16.80
2018-05-10T19:41:00.930Z,16.69
2018-05-10T19:43:34.016Z,16.54
2018-05-10T19:46:06.671Z,16.51
2018-05-10T19:48:39.221Z,16.41
2018-05-10T19:51:11.772Z,16.38
2018-05-10T19:53:44.267Z,16.34
2018-05-10T19:56:16.788Z,16.22
2018-05-10T19:58:49.281Z,16.25
2018-05-10T20:01:21.791Z,16.22
2018-05-10T20:03:54.295Z,16.19
2018-05-10T20:06:26.821Z,16.20
2018-05-10T20:08:59.325Z,16.27
2018-05-10T20:11:31.848Z,16.34
2018-05-10T20:14:04.994Z,16.41
2018-05-10T20:16:37.531Z,16.36
2018-05-10T20:19:10.027Z,16.42
2018-05-10T20:21:42.602Z,16.43
2018-05-10T20:24:15.101Z,16.45
2018-05-10T20:26:47.662Z,16.44
2018-05-10T20:29:20.161Z,16.47
2018-05-10T20:31:52.831Z,16.49
2018-05-10T20:34:25.327Z,16.40
2018-05-10T20:36:57.852Z,16.37
2018-05-10T20:39:30.355Z,16.43
2018-05-10T20:42:03.100Z,16.48
2018-05-10T20:44:35.686Z,16.46
2018-05-10T20:47:08.149Z,16.43
2018-05-10T20:49:40.652Z,16.35
2018-05-10T20:52:13.172Z,16.35
2018-05-10T20:54:45.828Z,16.33
2018-05-10T20:57:18.494Z,16.34
2018-05-10T20:59:51.029Z,16.37
2018-05-10T21:02:23.619Z,16.34
2018-05-10T21:04:56.180Z,16.34
2018-05-10T21:07:28.758Z,16.29
2018-05-10T21:10:01.387Z,16.23
2018-05-10T21:12:42.058Z,16.25
2018-05-10T21:15:14.571Z,16.21
2018-05-10T21:17:47.502Z,16.23
2018-05-10T21:20:20.091Z,16.25
2018-05-10T21:22:52.603Z,16.15
2018-05-10T21:25:25.109Z,16.22
2018-05-10T21:27:57.677Z,16.27
2018-05-10T21:30:30.208Z,16.12
2018-05-10T21:33:02.714Z,16.20
2018-05-10T21:35:35.697Z,16.17
2018-05-10T21:38:08.402Z,16.23
2018-05-10T21:40:40.932Z,16.15
2018-05-10T21:43:13.464Z,16.01
2018-05-10T21:45:46.091Z,16.03
2018-05-10T21:48:18.620Z,15.98
2018-05-10T21:50:51.140Z,15.93
2018-05-10T21:53:23.661Z,15.97
2018-05-10T21:55:56.181Z,15.97
2018-05-10T21:58:28.711Z,15.90
2018-05-10T22:01:01.446Z,15.85
2018-05-10T22:03:34.018Z,15.87
2018-05-10T22:06:06.874Z,15.82
2018-05-10T22:08:39.392Z,15.77
2018-05-10T22:11:11.909Z,15.73
2018-05-10T22:13:44.427Z,15.73
2018-05-10T22:16:19.324Z,15.72
2018-05-10T22:18:51.824Z,15.77
2018-05-10T22:21:24.352Z,15.67
2018-05-10T22:23:56.902Z,15.71
2018-05-10T22:26:29.476Z,15.78
2018-05-10T22:29:01.996Z,15.79
2018-05-10T22:31:35.152Z,15.78
2018-05-10T22:34:07.656Z,15.75
2018-05-10T22:36:40.242Z,15.73
2018-05-10T22:39:12.793Z,15.80
2018-05-10T22:41:45.320Z,15.78
2018-05-10T22:44:17.897Z,15.76
2018-05-10T22:46:50.469Z,15.70
2018-05-10T22:49:23.008Z,15.70
2018-05-10T22:51:55.549Z,15.74
2018-05-10T22:54:28.081Z,15.69
2018-05-10T22:57:00.639Z,15.66
2018-05-10T22:59:33.181Z,15.66
2018-05-10T23:02:05.712Z,15.71
2018-05-10T23:04:38.217Z,15.67
2018-05-10T23:07:10.741Z,15.68
2018-05-10T23:09:43.272Z,15.68
2018-05-10T23:12:15.879Z,15.60
2018-05-10T23:14:48.333Z,15.60
2018-05-10T23:17:20.864Z,15.61
2018-05-10T23:19:53.374Z,15.67
2018-05-10T23:22:25.892Z,15.65
2018-05-10T23:24:58.412Z,15.61
2018-05-10T23:27:30.947Z,15.62
2018-05-10T23:30:04.155Z,15.58
2018-05-10T23:32:36.669Z,15.63
2018-05-10T23:35:09.173Z,15.70
2018-05-10T23:37:41.715Z,15.60
2018-05-10T23:40:14.213Z,15.69
2018-05-10T23:42:46.739Z,15.68
2018-05-10T23:45:19.246Z,15.66
2018-05-10T23:47:51.771Z,15.61
2018-05-10T23:50:24.274Z,15.60
2018-05-10T23:52:56.793Z,15.63
2018-05-10T23:55:29.299Z,15.63
2018-05-10T23:58:01.828Z,15.62
